createdAt,value
2023-05-22T00:01:46.780Z,35.13
2023-05-22T00:04:13.691Z,33.60
2023-05-22T00:06:43.802Z,34.17
2023-05-22T00:09:11.043Z,28.90
2023-05-22T00:11:39.373Z,28.73
2023-05-22T00:14:06.330Z,31.87
2023-05-22T00:16:33.074Z,32.00
2023-05-22T00:19:01.880Z,29.40
2023-05-22T00:21:34.487Z,32.57
2023-05-22T00:24:04.530Z,30.40
2023-05-22T00:26:31.524Z,27.63
2023-05-22T00:28:58.229Z,29.60
2023-05-22T00:31:24.993Z,27.07
2023-05-22T00:33:51.758Z,26.97
2023-05-22T00:36:21.212Z,25.83
2023-05-22T00:38:48.392Z,26.57
2023-05-22T00:41:15.317Z,24.43
2023-05-22T00:43:42.345Z,27.80
2023-05-22T00:46:09.884Z,26.47
2023-05-22T00:48:36.678Z,26.17
2023-05-22T00:51:03.908Z,27.40
2023-05-22T00:53:31.614Z,24.20
2023-05-22T00:55:58.900Z,24.17
2023-05-22T00:58:26.823Z,26.40
2023-05-22T01:00:53.733Z,28.53
2023-05-22T01:03:26.334Z,26.10
2023-05-22T01:05:54.695Z,23.47
2023-05-22T01:08:21.660Z,23.53
2023-05-22T01:10:52.860Z,24.60
2023-05-22T01:13:39.916Z,23.65
2023-05-22T01:16:25.580Z,25.37
2023-05-22T01:19:18.978Z,30.58
2023-05-22T01:22:09.739Z,27.83
2023-05-22T01:24:37.270Z,28.83
2023-05-22T01:27:42.229Z,26.20
2023-05-22T01:30:15.009Z,24.13
2023-05-22T01:32:44.228Z,24.47
2023-05-22T01:35:15.401Z,23.63
2023-05-22T01:37:43.696Z,20.40
2023-05-22T01:40:12.191Z,22.10
2023-05-22T01:42:41.238Z,20.07
2023-05-22T01:45:12.166Z,21.00
2023-05-22T01:47:38.926Z,20.20
2023-05-22T01:50:06.471Z,18.60
2023-05-22T01:52:38.749Z,18.30
2023-05-22T01:55:21.130Z,21.87
2023-05-22T01:58:03.046Z,23.80
2023-05-22T02:00:31.400Z,22.10
2023-05-22T02:03:05.394Z,18.57
2023-05-22T02:05:35.656Z,21.67
2023-05-22T02:08:03.670Z,21.20
2023-05-22T02:10:31.625Z,21.70
2023-05-22T02:12:58.524Z,22.73
2023-05-22T02:15:25.402Z,23.33
2023-05-22T02:17:53.386Z,19.07
2023-05-22T02:20:20.316Z,23.43
2023-05-22T02:22:47.594Z,24.27
2023-05-22T02:25:16.988Z,25.07
2023-05-22T02:27:45.616Z,22.83
2023-05-22T02:30:13.778Z,26.80
2023-05-22T02:32:41.249Z,25.60
2023-05-22T02:35:09.118Z,24.33
2023-05-22T02:37:36.160Z,22.63
2023-05-22T02:40:06.198Z,20.50
2023-05-22T02:42:33.321Z,21.27
2023-05-22T02:45:00.418Z,23.00
2023-05-22T02:47:27.162Z,22.67
2023-05-22T02:49:54.020Z,21.60
2023-05-22T02:52:22.441Z,21.53
2023-05-22T02:54:49.123Z,22.73
2023-05-22T02:57:15.940Z,24.97
2023-05-22T02:59:42.843Z,24.57
2023-05-22T03:02:09.930Z,23.40
2023-05-22T03:04:38.570Z,22.63
2023-05-22T03:07:07.328Z,21.77
2023-05-22T03:09:34.169Z,23.03
2023-05-22T03:12:00.964Z,24.10
2023-05-22T03:14:29.173Z,29.23
2023-05-22T03:16:56.331Z,25.03
2023-05-22T03:19:23.236Z,25.37
2023-05-22T03:21:50.146Z,21.03
2023-05-22T03:24:17.082Z,23.30
2023-05-22T03:26:44.169Z,22.27
2023-05-22T03:29:11.058Z,22.67
2023-05-22T03:31:37.900Z,23.63
2023-05-22T03:34:05.912Z,20.90
2023-05-22T03:36:35.642Z,24.23
2023-05-22T03:39:03.307Z,24.13
2023-05-22T03:41:30.131Z,23.43
2023-05-22T03:43:57.639Z,22.80
2023-05-22T03:46:24.761Z,26.20
2023-05-22T03:48:51.536Z,25.93
2023-05-22T03:51:20.206Z,25.57
2023-05-22T03:53:47.462Z,27.53
2023-05-22T03:56:14.421Z,30.57
2023-05-22T03:58:41.144Z,34.17
2023-05-22T04:01:09.873Z,35.23
2023-05-22T04:03:37.668Z,35.33
2023-05-22T04:06:05.677Z,33.10
2023-05-22T04:08:32.529Z,39.10
2023-05-22T04:10:59.267Z,36.93
2023-05-22T04:13:27.230Z,38.97
2023-05-22T04:15:54.036Z,37.37
2023-05-22T04:18:20.801Z,38.13
2023-05-22T04:20:47.727Z,38.90
2023-05-22T04:23:14.504Z,37.07
2023-05-22T04:25:41.271Z,37.53
2023-05-22T04:28:09.189Z,33.07
2023-05-22T04:30:37.693Z,37.00
2023-05-22T04:33:05.611Z,34.13
2023-05-22T04:35:32.544Z,32.50
2023-05-22T04:38:02.551Z,30.47
2023-05-22T04:40:30.307Z,29.43
2023-05-22T04:42:59.842Z,29.97
2023-05-22T04:45:28.637Z,27.47
2023-05-22T04:47:56.207Z,24.93
2023-05-22T04:50:24.147Z,30.00
2023-05-22T04:52:51.004Z,27.93
2023-05-22T04:55:19.083Z,26.47
2023-05-22T04:57:47.299Z,23.67
2023-05-22T05:00:16.309Z,24.20
2023-05-22T05:02:43.316Z,21.60
2023-05-22T05:05:10.245Z,21.63
2023-05-22T05:07:38.755Z,22.23
2023-05-22T05:10:06.986Z,22.40
2023-05-22T05:12:33.750Z,22.30
2023-05-22T05:15:00.807Z,22.73
2023-05-22T05:17:27.679Z,21.67
2023-05-22T05:19:54.481Z,19.77
2023-05-22T05:22:21.213Z,21.27
2023-05-22T05:24:48.141Z,24.70
2023-05-22T05:27:15.235Z,24.98
2023-05-22T05:29:42.503Z,22.20
2023-05-22T05:32:11.498Z,25.60
2023-05-22T05:34:38.342Z,25.77
2023-05-22T05:37:05.586Z,25.92
2023-05-22T05:39:32.377Z,25.13
2023-05-22T05:42:00.180Z,26.95
2023-05-22T05:44:27.117Z,24.77
2023-05-22T05:46:54.029Z,23.27
2023-05-22T05:49:20.818Z,27.20
2023-05-22T05:51:47.529Z,34.17
2023-05-22T05:54:14.257Z,31.00
2023-05-22T05:56:41.129Z,34.13
2023-05-22T05:59:08.050Z,30.83
2023-05-22T06:01:35.354Z,35.15
2023-05-22T06:04:04.127Z,30.65
2023-05-22T06:06:35.736Z,32.33
2023-05-22T06:09:05.094Z,30.27
2023-05-22T06:11:35.215Z,33.97
2023-05-22T06:14:08.158Z,33.03
2023-05-22T06:16:34.972Z,36.72
2023-05-22T06:19:01.866Z,36.65
2023-05-22T06:21:28.700Z,37.13
2023-05-22T06:23:55.624Z,39.25
2023-05-22T06:26:23.427Z,44.38
2023-05-22T06:28:51.631Z,47.00
2023-05-22T06:31:18.729Z,47.75
2023-05-22T06:33:45.720Z,52.77
2023-05-22T06:36:12.631Z,46.80
2023-05-22T06:38:39.672Z,55.47
2023-05-22T06:41:07.915Z,52.50
2023-05-22T06:43:34.731Z,71.15
2023-05-22T06:46:01.570Z,64.75
2023-05-22T06:48:28.301Z,61.70
2023-05-22T06:50:55.162Z,56.80
2023-05-22T06:53:23.814Z,60.08
2023-05-22T06:55:51.075Z,73.75
2023-05-22T06:58:17.932Z,63.92
2023-05-22T07:00:44.661Z,68.00
2023-05-22T07:05:38.948Z,70.25
2023-05-22T07:08:06.236Z,70.78
2023-05-22T07:10:33.005Z,72.13
2023-05-22T07:12:59.867Z,76.82
2023-05-22T07:15:26.604Z,75.38
2023-05-22T07:17:53.462Z,74.50
2023-05-22T07:20:20.626Z,75.03
2023-05-22T07:22:47.359Z,74.28
2023-05-22T07:25:14.184Z,70.60
2023-05-22T07:27:40.953Z,75.93
2023-05-22T07:30:08.644Z,66.75
2023-05-22T07:32:35.477Z,76.18
2023-05-22T07:35:02.383Z,69.32
2023-05-22T07:37:30.029Z,76.53
2023-05-22T07:39:56.859Z,75.63
2023-05-22T07:42:23.636Z,64.30
2023-05-22T07:44:50.517Z,69.22
2023-05-22T07:47:17.396Z,64.43
2023-05-22T07:49:44.106Z,75.15
2023-05-22T07:52:10.796Z,77.50
2023-05-22T07:54:37.797Z,84.82
2023-05-22T07:57:04.713Z,77.65
2023-05-22T07:59:33.622Z,80.88
2023-05-22T08:02:00.943Z,86.35
2023-05-22T08:04:30.024Z,93.63
2023-05-22T08:06:57.255Z,86.72
2023-05-22T08:09:24.078Z,83.72
2023-05-22T08:11:50.987Z,94.97
2023-05-22T08:14:17.694Z,87.80
2023-05-22T08:16:44.390Z,81.30
2023-05-22T08:19:11.382Z,83.63
2023-05-22T08:21:38.195Z,89.18
2023-05-22T08:24:05.249Z,82.88
2023-05-22T08:26:33.813Z,76.25
2023-05-22T08:29:01.065Z,84.18
2023-05-22T08:31:31.031Z,76.60
2023-05-22T08:34:02.355Z,73.25
2023-05-22T08:36:31.670Z,68.00
2023-05-22T08:38:58.416Z,68.88
2023-05-22T08:41:25.382Z,85.25
2023-05-22T08:43:52.423Z,80.53
2023-05-22T08:46:20.070Z,78.30
2023-05-22T08:48:47.771Z,74.88
2023-05-22T08:51:19.338Z,71.38
2023-05-22T08:53:50.767Z,84.65
2023-05-22T08:56:17.866Z,66.72
2023-05-22T08:58:45.938Z,70.70
2023-05-22T09:01:14.463Z,65.50
2023-05-22T09:03:41.525Z,53.42
2023-05-22T09:06:10.321Z,50.03
2023-05-22T09:08:38.516Z,57.75
2023-05-22T09:11:05.292Z,53.53
2023-05-22T09:13:32.475Z,51.80
2023-05-22T09:16:16.614Z,52.47
2023-05-22T09:18:44.693Z,58.10
2023-05-22T09:21:28.913Z,51.72
2023-05-22T09:24:01.222Z,48.38
2023-05-22T09:26:33.005Z,43.75
2023-05-22T09:29:00.162Z,43.60
2023-05-22T09:31:29.132Z,37.72
2023-05-22T09:33:56.161Z,45.10
2023-05-22T09:36:29.824Z,43.95
2023-05-22T09:38:58.129Z,42.20
2023-05-22T09:41:24.944Z,40.33
2023-05-22T09:43:51.748Z,39.80
2023-05-22T09:46:18.549Z,43.13
2023-05-22T09:48:52.439Z,37.38
2023-05-22T09:51:23.766Z,30.33
2023-05-22T09:53:51.445Z,40.80
2023-05-22T09:56:30.735Z,32.28
2023-05-22T09:59:09.633Z,31.67
2023-05-22T10:01:38.777Z,36.70
2023-05-22T10:04:08.974Z,36.60
2023-05-22T10:06:37.238Z,38.42
2023-05-22T10:09:07.001Z,33.55
2023-05-22T10:11:35.565Z,44.55
2023-05-22T10:14:03.872Z,40.20
2023-05-22T10:16:31.244Z,35.63
2023-05-22T10:18:58.927Z,37.85
2023-05-22T10:21:25.956Z,34.55
2023-05-22T10:23:54.923Z,37.88
2023-05-22T10:26:22.970Z,34.90
2023-05-22T10:29:02.675Z,38.38
2023-05-22T10:31:40.136Z,41.42
2023-05-22T10:34:12.967Z,34.50
2023-05-22T10:36:48.281Z,33.95
2023-05-22T10:39:33.668Z,33.97
2023-05-22T10:42:00.562Z,35.05
2023-05-22T10:44:27.494Z,35.10
2023-05-22T10:46:54.567Z,36.22
2023-05-22T10:49:23.373Z,39.05
2023-05-22T10:51:57.188Z,38.42
2023-05-22T10:54:43.576Z,39.60
2023-05-22T10:57:12.336Z,44.33
2023-05-22T10:59:39.226Z,37.85
2023-05-22T11:02:07.707Z,33.42
2023-05-22T11:04:35.343Z,36.92
2023-05-22T11:07:04.008Z,28.58
2023-05-22T11:09:34.742Z,34.47
2023-05-22T11:12:28.355Z,34.83
2023-05-22T11:15:06.877Z,32.15
2023-05-22T11:17:51.795Z,34.78
2023-05-22T11:20:20.264Z,32.58
2023-05-22T11:23:08.036Z,35.40
2023-05-22T11:25:37.374Z,36.70
2023-05-22T11:28:05.694Z,33.08
2023-05-22T11:30:32.850Z,36.65
2023-05-22T11:33:01.075Z,38.03
2023-05-22T11:35:28.545Z,37.85
2023-05-22T11:37:56.249Z,34.90
2023-05-22T11:40:25.682Z,37.25
2023-05-22T11:42:56.090Z,34.08
2023-05-22T11:45:23.239Z,31.85
2023-05-22T11:47:50.334Z,34.30
2023-05-22T11:50:29.348Z,38.47
2023-05-22T11:53:04.141Z,33.00
2023-05-22T11:55:33.640Z,38.10
2023-05-22T11:58:02.451Z,40.50
2023-05-22T12:00:31.016Z,40.88
2023-05-22T12:02:58.708Z,43.30
2023-05-22T12:05:25.840Z,39.00
2023-05-22T12:07:53.030Z,40.17
2023-05-22T12:10:19.897Z,36.83
2023-05-22T12:12:47.984Z,41.13
2023-05-22T12:15:18.332Z,37.63
2023-05-22T12:17:45.057Z,39.03
2023-05-22T12:20:14.238Z,40.80
2023-05-22T12:22:43.021Z,37.70
2023-05-22T12:25:15.459Z,40.40
2023-05-22T12:27:44.326Z,38.30
2023-05-22T12:30:13.389Z,37.63
2023-05-22T12:32:41.010Z,35.75
2023-05-22T12:35:15.945Z,40.47
2023-05-22T12:37:51.705Z,36.13
2023-05-22T12:40:19.184Z,40.25
2023-05-22T12:42:46.152Z,36.28
2023-05-22T12:45:13.531Z,37.03
2023-05-22T12:47:40.414Z,37.65
2023-05-22T12:50:08.077Z,38.03
2023-05-22T12:52:35.916Z,37.92
2023-05-22T12:55:02.763Z,39.97
2023-05-22T12:57:29.534Z,41.28
2023-05-22T12:59:56.299Z,41.75
2023-05-22T13:02:23.082Z,42.28
2023-05-22T13:04:49.899Z,37.92
2023-05-22T13:07:16.638Z,37.58
2023-05-22T13:09:43.326Z,38.58
2023-05-22T13:12:11.195Z,36.20
2023-05-22T13:14:40.178Z,38.75
2023-05-22T13:17:06.990Z,41.35
2023-05-22T13:19:33.929Z,41.05
2023-05-22T13:22:00.787Z,36.85
2023-05-22T13:24:27.542Z,36.88
2023-05-22T13:26:54.289Z,35.10
2023-05-22T13:29:21.108Z,38.35
2023-05-22T13:31:47.862Z,37.35
2023-05-22T13:34:14.803Z,35.05
2023-05-22T13:36:41.693Z,36.17
2023-05-22T13:39:08.446Z,33.03
2023-05-22T13:41:35.225Z,35.95
2023-05-22T13:44:01.944Z,40.28
2023-05-22T13:46:34.578Z,34.60
2023-05-22T13:49:01.299Z,35.63
2023-05-22T13:51:28.077Z,38.65
2023-05-22T13:53:55.148Z,39.17
2023-05-22T13:56:23.405Z,36.25
2023-05-22T13:58:50.198Z,37.45
2023-05-22T14:01:17.019Z,40.03
2023-05-22T14:03:44.688Z,37.78
2023-05-22T14:06:11.662Z,39.45
2023-05-22T14:08:38.488Z,45.50
2023-05-22T14:11:05.573Z,46.00
2023-05-22T14:13:32.492Z,39.83
2023-05-22T14:15:59.292Z,41.63
2023-05-22T14:18:26.273Z,43.22
2023-05-22T14:20:53.108Z,44.45
2023-05-22T14:23:19.958Z,42.78
2023-05-22T14:25:46.810Z,45.75
2023-05-22T14:28:14.038Z,44.25
2023-05-22T14:30:40.859Z,45.35
2023-05-22T14:33:07.748Z,43.45
2023-05-22T14:35:34.631Z,44.95
2023-05-22T14:38:01.985Z,43.22
2023-05-22T14:40:28.785Z,42.28
2023-05-22T14:42:55.854Z,43.80
2023-05-22T14:45:22.732Z,44.72
2023-05-22T14:47:49.781Z,48.20
2023-05-22T14:50:19.829Z,52.53
2023-05-22T14:52:48.319Z,47.67
2023-05-22T14:55:15.639Z,45.50
2023-05-22T14:57:42.358Z,46.53
2023-05-22T15:00:10.802Z,46.42
2023-05-22T15:02:37.980Z,54.30
2023-05-22T15:05:05.527Z,49.63
2023-05-22T15:07:43.231Z,51.20
2023-05-22T15:10:11.482Z,57.42
2023-05-22T15:12:38.262Z,48.97
2023-05-22T15:15:05.516Z,54.45
2023-05-22T15:17:32.344Z,47.42
2023-05-22T15:19:59.321Z,50.33
2023-05-22T15:22:26.110Z,46.95
2023-05-22T15:25:07.083Z,46.75
2023-05-22T15:27:35.052Z,55.70
2023-05-22T15:30:03.024Z,54.80
2023-05-22T15:32:31.547Z,52.35
2023-05-22T15:34:58.685Z,56.08
2023-05-22T15:37:25.877Z,53.10
2023-05-22T15:39:52.794Z,54.90
2023-05-22T15:42:19.798Z,58.10
2023-05-22T15:44:46.512Z,57.28
2023-05-22T15:47:13.198Z,55.85
2023-05-22T15:49:39.962Z,59.33
2023-05-22T15:52:06.760Z,61.15
2023-05-22T15:54:33.782Z,64.32
2023-05-22T15:57:00.558Z,58.13
2023-05-22T15:59:27.436Z,56.33
2023-05-22T16:01:54.159Z,58.92
2023-05-22T16:04:21.022Z,60.75
2023-05-22T16:06:47.879Z,57.67
2023-05-22T16:11:42.945Z,59.92
2023-05-22T16:14:09.887Z,66.47
2023-05-22T16:16:36.624Z,67.88
2023-05-22T16:19:03.470Z,61.13
2023-05-22T16:21:30.945Z,66.88
2023-05-22T16:23:57.727Z,64.90
2023-05-22T16:26:24.462Z,62.38
2023-05-22T16:28:53.561Z,64.18
2023-05-22T16:31:20.506Z,57.28
2023-05-22T16:33:47.470Z,59.65
2023-05-22T16:36:14.237Z,54.35
2023-05-22T16:38:42.375Z,56.42
2023-05-22T16:41:09.089Z,56.72
2023-05-22T16:43:37.698Z,55.33
2023-05-22T16:46:04.523Z,49.90
2023-05-22T16:48:31.235Z,55.50
2023-05-22T16:50:57.982Z,57.95
2023-05-22T16:53:24.754Z,59.03
2023-05-22T16:55:51.941Z,57.50
2023-05-22T16:58:19.115Z,54.88
2023-05-22T17:00:46.326Z,57.45
2023-05-22T17:03:14.070Z,58.00
2023-05-22T17:05:41.388Z,61.85
2023-05-22T17:08:08.421Z,61.33
2023-05-22T17:10:35.394Z,65.05
2023-05-22T17:13:02.143Z,58.17
2023-05-22T17:15:29.031Z,58.38
2023-05-22T17:17:55.948Z,56.40
2023-05-22T17:20:25.863Z,55.33
2023-05-22T17:22:52.694Z,59.08
2023-05-22T17:25:19.604Z,58.60
2023-05-22T17:27:46.512Z,51.13
2023-05-22T17:30:13.440Z,48.28
2023-05-22T17:32:40.302Z,49.50
2023-05-22T17:35:07.339Z,51.58
2023-05-22T17:37:34.250Z,48.85
2023-05-22T17:40:01.213Z,55.78
2023-05-22T17:42:28.092Z,44.97
2023-05-22T17:44:54.899Z,55.97
2023-05-22T17:47:21.780Z,54.50
2023-05-22T17:49:48.628Z,46.78
2023-05-22T17:52:15.405Z,45.83
2023-05-22T17:54:42.236Z,46.70
2023-05-22T17:57:09.121Z,51.95
2023-05-22T17:59:39.198Z,48.28
2023-05-22T18:02:08.009Z,48.28
2023-05-22T18:04:35.631Z,47.67
2023-05-22T18:07:02.370Z,44.42
2023-05-22T18:09:29.095Z,43.42
2023-05-22T18:11:55.920Z,43.03
2023-05-22T18:14:22.682Z,41.20
2023-05-22T18:16:49.810Z,41.05
2023-05-22T18:19:16.569Z,44.70
2023-05-22T18:21:43.535Z,43.67
2023-05-22T18:24:10.320Z,45.22
2023-05-22T18:26:37.087Z,33.03
2023-05-22T18:29:03.831Z,25.17
2023-05-22T18:31:30.728Z,20.80
2023-05-22T18:33:57.440Z,18.55
2023-05-22T18:36:24.430Z,14.63
2023-05-22T18:38:51.166Z,15.35
2023-05-22T18:41:17.882Z,14.00
2023-05-22T18:43:45.000Z,14.40
2023-05-22T18:46:11.710Z,13.32
2023-05-22T18:48:38.446Z,13.43
2023-05-22T18:51:05.190Z,13.95
2023-05-22T18:53:32.096Z,13.98
2023-05-22T18:55:58.797Z,11.75
2023-05-22T18:58:25.672Z,13.00
2023-05-22T19:00:55.288Z,12.27
2023-05-22T19:03:22.107Z,11.80
2023-05-22T19:05:48.896Z,13.90
2023-05-22T19:08:15.934Z,13.45
2023-05-22T19:10:42.817Z,13.45
2023-05-22T19:13:09.738Z,11.90
2023-05-22T19:15:37.537Z,15.35
2023-05-22T19:18:04.536Z,25.23
2023-05-22T19:20:31.362Z,15.50
2023-05-22T19:22:58.403Z,13.27
2023-05-22T19:25:25.262Z,12.20
2023-05-22T19:27:52.139Z,17.00
2023-05-22T19:30:18.983Z,12.73
2023-05-22T19:32:45.723Z,13.43
2023-05-22T19:35:12.578Z,12.50
2023-05-22T19:37:39.333Z,12.90
2023-05-22T19:40:07.054Z,11.32
2023-05-22T19:42:34.323Z,12.43
2023-05-22T19:45:02.613Z,14.60
2023-05-22T19:47:29.409Z,14.77
2023-05-22T19:49:56.194Z,14.37
2023-05-22T19:52:23.148Z,11.70
2023-05-22T19:54:49.896Z,12.60
2023-05-22T19:57:16.744Z,14.32
2023-05-22T19:59:43.484Z,15.77
2023-05-22T20:02:10.929Z,19.45
2023-05-22T20:04:38.989Z,17.70
2023-05-22T20:07:07.405Z,14.90
2023-05-22T20:09:34.134Z,11.63
2023-05-22T20:12:01.113Z,10.13
2023-05-22T20:14:27.799Z,10.87
2023-05-22T20:16:54.672Z,10.53
2023-05-22T20:19:24.141Z,11.10
2023-05-22T20:21:51.867Z,12.83
2023-05-22T20:24:25.038Z,10.23
2023-05-22T20:26:52.279Z,14.33
2023-05-22T20:29:19.311Z,13.73
2023-05-22T20:31:46.614Z,12.48
2023-05-22T20:34:13.808Z,11.53
2023-05-22T20:36:42.451Z,14.33
2023-05-22T20:39:11.676Z,13.80
2023-05-22T20:41:38.625Z,12.73
2023-05-22T20:44:06.364Z,13.70
2023-05-22T20:46:33.177Z,15.33
2023-05-22T20:49:00.132Z,16.40
2023-05-22T20:51:32.377Z,15.90
2023-05-22T20:53:59.812Z,14.07
2023-05-22T20:56:27.411Z,15.90
2023-05-22T20:58:54.567Z,18.10
2023-05-22T21:01:22.010Z,14.83
2023-05-22T21:03:51.349Z,15.37
2023-05-22T21:06:18.980Z,15.37
2023-05-22T21:08:45.837Z,13.50
2023-05-22T21:11:12.619Z,14.30
2023-05-22T21:13:39.344Z,16.63
2023-05-22T21:16:06.488Z,12.07
2023-05-22T21:18:33.176Z,12.63
2023-05-22T21:20:59.943Z,14.73
2023-05-22T21:23:27.807Z,10.37
2023-05-22T21:25:54.597Z,11.03
2023-05-22T21:28:21.285Z,9.73
2023-05-22T21:30:48.081Z,14.13
2023-05-22T21:33:14.918Z,26.47
2023-05-22T21:35:41.662Z,10.77
2023-05-22T21:38:08.366Z,10.17
2023-05-22T21:40:35.177Z,9.10
2023-05-22T21:43:01.948Z,11.57
2023-05-22T21:45:28.742Z,10.47
2023-05-22T21:47:55.681Z,7.83
2023-05-22T21:50:22.423Z,8.40
2023-05-22T21:52:49.163Z,9.00
2023-05-22T21:55:15.948Z,8.30
2023-05-22T21:57:42.676Z,10.67
2023-05-22T22:00:10.040Z,10.50
2023-05-22T22:02:36.881Z,7.83
2023-05-22T22:05:04.136Z,10.93
2023-05-22T22:07:30.944Z,11.80
2023-05-22T22:10:01.001Z,10.10
2023-05-22T22:12:27.737Z,10.23
2023-05-22T22:14:54.577Z,11.70
2023-05-22T22:17:23.491Z,12.47
2023-05-22T22:19:50.562Z,9.67
2023-05-22T22:22:17.278Z,10.03
2023-05-22T22:24:44.511Z,10.37
2023-05-22T22:27:12.124Z,8.50
2023-05-22T22:29:38.859Z,10.80
2023-05-22T22:32:05.846Z,10.23
2023-05-22T22:34:32.621Z,9.00
2023-05-22T22:36:59.311Z,10.20
2023-05-22T22:39:26.574Z,9.47
2023-05-22T22:41:53.350Z,9.40
2023-05-22T22:44:20.033Z,8.63
2023-05-22T22:46:46.801Z,9.30
2023-05-22T22:49:14.149Z,11.57
2023-05-22T22:51:40.831Z,9.77
2023-05-22T22:54:07.563Z,11.57
2023-05-22T22:56:34.397Z,9.47
2023-05-22T22:59:01.466Z,8.37
2023-05-22T23:01:28.260Z,11.23
2023-05-22T23:03:55.190Z,9.10
2023-05-22T23:06:23.758Z,10.90
2023-05-22T23:08:50.584Z,10.50
2023-05-22T23:11:17.293Z,10.93
2023-05-22T23:13:44.036Z,8.70
2023-05-22T23:16:10.885Z,9.97
2023-05-22T23:18:37.806Z,8.77
2023-05-22T23:21:04.524Z,8.87
2023-05-22T23:23:31.237Z,8.57
2023-05-22T23:25:59.087Z,8.77
2023-05-22T23:28:26.021Z,12.57
2023-05-22T23:30:52.869Z,10.97
2023-05-22T23:33:19.813Z,9.83
2023-05-22T23:35:46.600Z,9.00
2023-05-22T23:38:13.319Z,9.63
2023-05-22T23:40:40.098Z,11.17
2023-05-22T23:43:06.865Z,9.93
2023-05-22T23:45:33.607Z,12.23
2023-05-22T23:48:00.384Z,9.93
2023-05-22T23:50:27.164Z,9.10
2023-05-22T23:52:54.113Z,9.00
2023-05-22T23:55:21.734Z,9.60
2023-05-22T23:57:48.491Z,10.10
